Time;durP1;ratioP1;P1;durP2;ratioP2;P2;SDS_P1;SDS_P2;PMS_P1;PMS_P2;Temp;Humidity;BMP_temperature;BMP_pressure;BME280_temperature;BME280_humidity;BME280_pressure;Samples;Min_cycle;Max_cycle;Signal;HPM_P1;HPM_P2
2023/03/31 00:02:12;;;;;;;25.58;4.65;;;10.00;99.90;;;;;;5043461;28;20124;-80
2023/03/31 00:04:44;;;;;;;21.08;4.68;;;10.00;99.90;;;;;;5062597;28;20049;-80
2023/03/31 00:07:15;;;;;;;24.73;4.45;;;10.00;99.90;;;;;;5045482;28;20076;-80
2023/03/31 00:09:44;;;;;;;27.20;5.05;;;10.00;99.90;;;;;;5063422;28;20063;-80
2023/03/31 00:12:12;;;;;;;22.95;4.82;;;9.90;99.90;;;;;;5060009;28;20281;-80
2023/03/31 00:14:39;;;;;;;26.77;4.13;;;10.00;99.90;;;;;;5042006;28;20054;-80
2023/03/31 00:17:05;;;;;;;25.50;5.13;;;10.00;99.90;;;;;;5044535;28;20047;-80
2023/03/31 00:19:32;;;;;;;29.70;5.82;;;10.00;99.90;;;;;;5028666;28;20041;-81
2023/03/31 00:22:01;;;;;;;23.50;4.75;;;10.00;99.90;;;;;;5061297;28;20040;-80
2023/03/31 00:24:31;;;;;;;28.15;5.35;;;10.00;99.90;;;;;;5062732;28;20125;-80
2023/03/31 00:26:58;;;;;;;24.90;5.43;;;10.00;99.90;;;;;;5060101;28;20554;-80
2023/03/31 00:29:24;;;;;;;25.40;5.35;;;10.00;99.90;;;;;;5045372;28;20481;-80
2023/03/31 00:31:50;;;;;;;23.67;4.40;;;10.00;99.90;;;;;;5041878;28;20105;-80
2023/03/31 00:34:16;;;;;;;25.63;5.15;;;9.90;99.90;;;;;;5048783;28;20290;-80
2023/03/31 00:36:47;;;;;;;26.70;5.50;;;9.90;99.90;;;;;;5044992;28;20055;-80
2023/03/31 00:39:16;;;;;;;26.83;4.90;;;9.90;99.90;;;;;;5061865;28;20497;-80
2023/03/31 00:41:42;;;;;;;26.98;5.28;;;9.90;99.90;;;;;;5043906;28;20119;-80
2023/03/31 00:44:11;;;;;;;26.33;5.38;;;9.90;99.90;;;;;;5049309;28;20095;-80
2023/03/31 00:46:57;;;;;;;21.67;5.28;;;9.80;99.90;;;;;;5061294;28;20068;-80
2023/03/31 00:49:39;;;;;;;24.23;4.22;;;9.80;99.90;;;;;;5049983;28;20206;-80
2023/03/31 00:52:22;;;;;;;24.90;5.70;;;9.80;99.90;;;;;;5061846;28;20040;-80
2023/03/31 00:54:53;;;;;;;20.02;4.40;;;9.80;99.90;;;;;;5046313;28;20124;-80
2023/03/31 00:57:20;;;;;;;26.20;5.47;;;9.70;99.90;;;;;;5046578;28;20040;-80
2023/03/31 00:59:50;;;;;;;25.95;4.90;;;9.70;99.90;;;;;;5065076;28;20064;-80
2023/03/31 01:02:19;;;;;;;25.55;5.28;;;9.70;99.90;;;;;;5064283;28;20094;-80
2023/03/31 01:04:54;;;;;;;22.77;4.90;;;9.70;99.90;;;;;;5063485;28;20060;-80
2023/03/31 01:07:33;;;;;;;25.65;5.30;;;9.70;99.90;;;;;;5061343;28;20048;-80
2023/03/31 01:10:02;;;;;;;23.55;4.75;;;9.70;99.90;;;;;;5063771;28;20048;-80
2023/03/31 01:12:28;;;;;;;27.42;5.05;;;9.70;99.90;;;;;;5045084;28;20037;-81
2023/03/31 01:14:54;;;;;;;18.25;4.30;;;9.70;99.90;;;;;;5048030;28;20036;-80
2023/03/31 01:17:21;;;;;;;22.92;5.70;;;9.70;99.90;;;;;;5048195;28;20052;-80
2023/03/31 01:20:11;;;;;;;21.52;4.68;;;9.60;99.90;;;;;;5061993;28;20517;-80
2023/03/31 01:23:18;;;;;;;20.17;4.10;;;9.60;99.90;;;;;;5061108;28;20044;-80
2023/03/31 01:25:53;;;;;;;25.38;5.28;;;9.60;99.90;;;;;;5037771;28;20175;-80
2023/03/31 01:28:56;;;;;;;31.13;5.03;;;9.60;99.90;;;;;;5063059;28;20498;-80
2023/03/31 01:31:31;;;;;;;23.40;5.10;;;9.60;99.90;;;;;;5048801;28;20033;-81
2023/03/31 01:34:28;;;;;;;21.60;4.47;;;9.60;99.90;;;;;;5062882;28;20036;-80
2023/03/31 01:37:02;;;;;;;19.42;3.63;;;9.60;99.90;;;;;;5062228;28;20123;-80
2023/03/31 01:39:40;;;;;;;23.25;5.00;;;9.50;99.90;;;;;;5063935;28;20032;-80
2023/03/31 01:42:34;;;;;;;24.40;4.60;;;9.50;99.90;;;;;;5044577;28;20032;-80
2023/03/31 01:45:25;;;;;;;22.58;4.72;;;9.50;99.90;;;;;;5063258;28;20483;-80
2023/03/31 01:48:08;;;;;;;24.85;4.53;;;9.50;99.90;;;;;;5064577;28;20120;-80
2023/03/31 01:50:55;;;;;;;21.13;5.03;;;9.50;99.90;;;;;;5061663;28;20119;-80
2023/03/31 01:53:45;;;;;;;26.48;4.40;;;9.50;99.90;;;;;;5063314;28;20052;-80
2023/03/31 01:56:51;;;;;;;20.15;4.43;;;9.50;99.90;;;;;;5044551;28;20036;-80
2023/03/31 01:59:31;;;;;;;20.20;4.25;;;9.50;99.90;;;;;;4984842;28;20057;-80
2023/03/31 02:02:04;;;;;;;20.98;4.13;;;9.40;99.90;;;;;;5039658;28;20037;-81
2023/03/31 02:04:47;;;;;;;20.55;4.18;;;9.50;99.90;;;;;;5060012;28;20513;-80
2023/03/31 02:07:32;;;;;;;23.70;4.72;;;9.50;99.90;;;;;;5060431;28;20041;-80
2023/03/31 02:10:01;;;;;;;20.90;4.90;;;9.40;99.90;;;;;;5064492;28;20072;-81
2023/03/31 02:12:31;;;;;;;17.38;3.70;;;9.40;99.90;;;;;;5058941;28;20045;-80
2023/03/31 02:15:00;;;;;;;21.95;3.72;;;9.40;99.90;;;;;;5062063;28;21272;-81
2023/03/31 02:17:31;;;;;;;21.25;4.63;;;9.40;99.90;;;;;;5044767;28;20033;-81
2023/03/31 02:20:10;;;;;;;19.15;4.00;;;9.40;99.90;;;;;;5032152;28;20044;-80
2023/03/31 02:22:40;;;;;;;25.20;4.30;;;9.40;99.90;;;;;;5059701;28;20063;-80
2023/03/31 02:25:09;;;;;;;17.73;4.10;;;9.40;99.90;;;;;;5042658;28;20049;-80
2023/03/31 02:27:39;;;;;;;19.67;4.65;;;8.10;99.90;;;;;;5045067;28;20135;-80
2023/03/31 02:30:06;;;;;;;19.23;4.40;;;9.50;99.90;;;;;;5061455;28;20079;-80
2023/03/31 02:32:39;;;;;;;22.10;4.57;;;9.50;99.90;;;;;;5059275;28;20055;-80
2023/03/31 02:35:10;;;;;;;19.73;4.20;;;9.50;99.90;;;;;;5061229;28;20501;-81
2023/03/31 02:37:36;;;;;;;21.02;4.22;;;9.50;99.90;;;;;;5060100;28;20055;-81
2023/03/31 02:40:09;;;;;;;21.10;3.80;;;9.50;99.90;;;;;;5046550;28;20064;-80
2023/03/31 02:42:39;;;;;;;20.48;4.00;;;9.50;99.90;;;;;;5058975;28;20056;-81
2023/03/31 02:45:26;;;;;;;22.70;5.13;;;9.50;99.90;;;;;;5060815;28;20044;-80
2023/03/31 02:47:53;;;;;;;23.33;4.28;;;9.50;99.90;;;;;;5046235;28;20064;-81
2023/03/31 02:50:23;;;;;;;19.90;4.40;;;9.50;99.90;;;;;;5058451;28;20044;-81
2023/03/31 02:53:26;;;;;;;20.67;3.90;;;9.50;99.90;;;;;;5061511;28;20035;-81
2023/03/31 02:56:28;;;;;;;23.38;4.38;;;9.50;99.90;;;;;;5060245;28;20448;-81
2023/03/31 02:59:20;;;;;;;20.95;3.58;;;9.50;99.90;;;;;;5060319;28;20121;-81
2023/03/31 03:02:07;;;;;;;21.08;3.95;;;9.50;99.90;;;;;;5060278;28;20499;-81
2023/03/31 03:05:06;;;;;;;18.45;4.13;;;9.60;99.90;;;;;;5062202;28;20508;-81
2023/03/31 03:07:36;;;;;;;19.40;4.15;;;9.60;99.90;;;;;;5060064;28;20052;-81
2023/03/31 03:10:24;;;;;;;18.23;3.88;;;9.60;99.90;;;;;;5046225;28;20072;-81
2023/03/31 03:13:03;;;;;;;24.17;4.00;;;9.60;99.90;;;;;;5045312;28;20041;-81
2023/03/31 03:15:41;;;;;;;19.17;3.97;;;9.60;99.90;;;;;;5060757;28;20124;-81
2023/03/31 03:18:07;;;;;;;19.00;4.35;;;9.60;99.90;;;;;;5061538;28;20033;-81
2023/03/31 03:20:34;;;;;;;27.08;3.88;;;9.60;99.90;;;;;;5025806;28;20159;-81
2023/03/31 03:23:00;;;;;;;20.95;4.88;;;9.60;99.90;;;;;;5044574;28;20036;-81
2023/03/31 03:25:29;;;;;;;18.80;4.57;;;9.60;99.90;;;;;;5043452;28;20499;-81
2023/03/31 03:27:55;;;;;;;22.75;4.28;;;9.50;99.90;;;;;;5043265;28;20036;-81
2023/03/31 03:30:21;;;;;;;20.83;4.00;;;9.50;99.90;;;;;;5062569;28;20459;-81
2023/03/31 03:32:47;;;;;;;16.52;3.58;;;9.50;99.90;;;;;;5061876;28;20040;-81
2023/03/31 03:35:12;;;;;;;23.02;4.70;;;9.50;99.90;;;;;;5043673;28;20044;-81
2023/03/31 03:37:38;;;;;;;20.17;4.00;;;9.50;99.90;;;;;;5042333;28;20060;-81
2023/03/31 03:40:05;;;;;;;14.93;3.60;;;9.50;99.90;;;;;;5043600;28;20044;-81
2023/03/31 03:42:32;;;;;;;21.10;3.80;;;9.50;99.90;;;;;;5060124;28;20493;-81
2023/03/31 03:44:57;;;;;;;22.70;4.25;;;9.50;99.90;;;;;;5042437;28;20041;-81
2023/03/31 03:47:23;;;;;;;25.73;5.25;;;9.50;99.90;;;;;;5061102;28;20048;-81
2023/03/31 03:49:49;;;;;;;17.83;3.80;;;9.50;99.90;;;;;;5061928;28;20573;-81
2023/03/31 03:52:15;;;;;;;20.80;4.53;;;9.50;99.90;;;;;;5044286;28;20036;-81
2023/03/31 03:54:41;;;;;;;18.23;3.55;;;9.50;99.90;;;;;;5046330;28;20040;-81
2023/03/31 03:57:07;;;;;;;16.77;4.53;;;9.50;99.90;;;;;;5045603;28;20090;-81
2023/03/31 03:59:32;;;;;;;14.95;3.50;;;9.50;99.90;;;;;;5060054;28;20124;-81
2023/03/31 04:01:58;;;;;;;15.27;3.92;;;9.50;99.90;;;;;;5040074;28;20033;-81
2023/03/31 04:04:24;;;;;;;20.25;4.05;;;9.60;99.90;;;;;;5061104;28;20090;-79
2023/03/31 04:06:50;;;;;;;16.65;4.00;;;9.60;99.90;;;;;;5029262;28;20158;-80
2023/03/31 04:09:16;;;;;;;17.17;4.00;;;9.60;99.90;;;;;;5064416;28;20036;-80
2023/03/31 04:11:41;;;;;;;13.88;3.88;;;9.60;99.90;;;;;;5030765;28;20036;-80
2023/03/31 04:14:07;;;;;;;15.38;3.78;;;9.60;99.90;;;;;;5062550;28;20110;-80
2023/03/31 04:16:33;;;;;;;18.65;4.43;;;9.60;99.90;;;;;;5063362;28;20103;-80
2023/03/31 04:19:02;;;;;;;17.13;4.43;;;9.70;99.90;;;;;;5061927;28;20036;-80
2023/03/31 04:21:33;;;;;;;14.80;4.07;;;9.70;99.90;;;;;;5048397;28;20121;-80
2023/03/31 04:24:03;;;;;;;16.08;4.65;;;9.70;99.90;;;;;;5048904;28;20033;-80
2023/03/31 04:26:41;;;;;;;14.93;4.68;;;9.70;99.90;;;;;;5062311;28;20103;-80
2023/03/31 04:29:08;;;;;;;17.80;4.55;;;9.70;99.90;;;;;;5059776;28;20098;-80
2023/03/31 04:31:37;;;;;;;15.98;4.57;;;9.70;99.90;;;;;;5045563;28;20118;-81
2023/03/31 04:34:05;;;;;;;13.55;4.47;;;9.70;99.90;;;;;;5033502;28;20561;-80
2023/03/31 04:36:32;;;;;;;14.95;4.88;;;9.70;99.90;;;;;;5060253;28;20040;-80
2023/03/31 04:38:59;;;;;;;14.93;4.68;;;9.70;99.90;;;;;;5049034;28;20041;-80
2023/03/31 04:41:28;;;;;;;15.93;4.97;;;9.80;99.90;;;;;;5031707;28;20036;-81
2023/03/31 04:43:54;;;;;;;17.88;5.70;;;9.80;99.90;;;;;;5044948;28;20316;-80
2023/03/31 04:46:20;;;;;;;14.27;5.00;;;9.80;99.90;;;;;;5062366;28;20432;-80
2023/03/31 04:48:47;;;;;;;17.30;4.78;;;9.70;99.90;;;;;;5062014;28;20133;-80
2023/03/31 04:51:14;;;;;;;13.73;4.88;;;9.80;99.90;;;;;;5061881;28;20045;-81
2023/03/31 04:53:40;;;;;;;12.77;5.05;;;9.70;99.90;;;;;;5060997;28;20528;-81
2023/03/31 04:56:06;;;;;;;11.70;4.97;;;9.80;99.90;;;;;;5044897;28;20037;-81
2023/03/31 04:58:32;;;;;;;14.05;5.25;;;9.70;99.90;;;;;;5065398;28;20044;-81
2023/03/31 05:00:58;;;;;;;15.60;5.60;;;9.70;99.90;;;;;;5048063;28;20501;-81
2023/03/31 05:03:24;;;;;;;15.15;5.68;;;9.70;99.90;;;;;;5062230;28;20044;-81
2023/03/31 05:05:49;;;;;;;13.20;5.57;;;9.70;99.90;;;;;;5059055;28;20079;-81
2023/03/31 05:08:15;;;;;;;14.27;5.53;;;9.70;99.90;;;;;;5061947;28;20052;-80
2023/03/31 05:10:41;;;;;;;16.08;5.00;;;9.70;99.90;;;;;;5024951;28;20028;-80
2023/03/31 05:13:09;;;;;;;15.57;5.57;;;9.70;99.90;;;;;;5058643;28;20051;-80
2023/03/31 05:15:37;;;;;;;16.55;6.22;;;9.70;99.90;;;;;;5043240;28;20455;-80
2023/03/31 05:18:03;;;;;;;16.10;5.22;;;9.70;99.90;;;;;;5045270;28;20502;-80
2023/03/31 05:20:29;;;;;;;16.10;5.90;;;9.70;99.90;;;;;;5015847;28;20060;-80
2023/03/31 05:22:55;;;;;;;16.38;5.82;;;9.70;99.90;;;;;;5013826;28;20656;-80
2023/03/31 05:25:21;;;;;;;19.00;5.90;;;9.70;99.90;;;;;;5029871;28;20145;-80
2023/03/31 05:27:47;;;;;;;17.63;6.07;;;9.70;99.90;;;;;;5047431;28;20783;-80
2023/03/31 05:30:14;;;;;;;15.13;5.28;;;9.70;99.90;;;;;;5059329;28;20601;-80
2023/03/31 05:32:41;;;;;;;13.05;5.07;;;9.70;99.90;;;;;;5060431;28;20437;-80
2023/03/31 05:35:07;;;;;;;19.23;6.15;;;9.70;99.90;;;;;;5062220;28;20097;-81
2023/03/31 05:37:33;;;;;;;16.08;5.82;;;9.80;99.90;;;;;;5059853;28;20477;-80
2023/03/31 05:39:59;;;;;;;14.70;5.80;;;9.70;99.90;;;;;;5042265;28;20040;-80
2023/03/31 05:42:25;;;;;;;15.02;5.68;;;9.80;99.90;;;;;;5045328;28;20032;-80
2023/03/31 05:44:50;;;;;;;14.90;5.07;;;9.80;99.90;;;;;;5061614;28;20032;-80
2023/03/31 05:47:16;;;;;;;16.42;5.10;;;9.80;99.90;;;;;;5048235;28;20047;-79
2023/03/31 05:49:42;;;;;;;14.35;4.70;;;9.80;99.90;;;;;;5047068;28;20040;-80
2023/03/31 05:52:09;;;;;;;16.70;4.50;;;9.80;99.90;;;;;;5063989;28;20059;-80
2023/03/31 05:54:35;;;;;;;16.60;4.13;;;9.80;99.90;;;;;;5046928;28;20055;-80
2023/03/31 05:57:01;;;;;;;14.15;4.57;;;9.80;99.90;;;;;;5063453;28;20494;-79
2023/03/31 05:59:27;;;;;;;13.02;4.45;;;9.80;99.90;;;;;;5063154;28;21523;-80
2023/03/31 06:01:53;;;;;;;17.77;4.80;;;9.90;99.90;;;;;;5044004;28;20036;-79
2023/03/31 06:04:18;;;;;;;15.50;4.38;;;9.90;99.90;;;;;;5063592;28;20059;-80
2023/03/31 06:06:45;;;;;;;13.75;4.25;;;9.90;99.90;;;;;;5063215;28;20033;-80
2023/03/31 06:09:13;;;;;;;14.38;4.22;;;9.90;99.90;;;;;;5046253;28;20040;-79
2023/03/31 06:11:39;;;;;;;13.40;4.13;;;9.90;99.90;;;;;;5053200;28;20517;-79
2023/03/31 06:14:05;;;;;;;13.57;3.90;;;9.90;99.90;;;;;;5064955;28;20044;-80
2023/03/31 06:16:31;;;;;;;12.98;4.20;;;10.00;99.90;;;;;;5043690;28;20178;-79
2023/03/31 06:18:56;;;;;;;12.77;4.28;;;10.00;99.90;;;;;;5051296;28;20081;-79
2023/03/31 06:21:22;;;;;;;14.20;4.35;;;10.00;99.90;;;;;;5041985;28;20061;-79
2023/03/31 06:23:48;;;;;;;13.15;4.40;;;10.00;99.90;;;;;;5077051;28;20037;-80
2023/03/31 06:26:16;;;;;;;14.57;4.68;;;10.00;99.90;;;;;;5044071;28;20040;-79
2023/03/31 06:28:43;;;;;;;12.70;4.13;;;10.00;99.90;;;;;;5057175;28;20051;-80
2023/03/31 06:31:12;;;;;;;14.07;4.07;;;10.00;99.90;;;;;;5047380;28;20418;-80
2023/03/31 06:33:40;;;;;;;10.55;3.42;;;10.00;99.90;;;;;;5063002;28;20121;-80
2023/03/31 06:36:06;;;;;;;11.85;3.75;;;10.00;99.90;;;;;;5043120;28;20131;-80
2023/03/31 06:38:33;;;;;;;12.98;4.70;;;10.00;99.90;;;;;;5064087;28;20033;-80
2023/03/31 06:40:59;;;;;;;15.43;4.32;;;10.00;99.90;;;;;;5062946;28;20032;-80
2023/03/31 06:43:25;;;;;;;13.38;4.30;;;10.00;99.90;;;;;;5045801;28;20035;-80
2023/03/31 06:45:55;;;;;;;17.58;4.60;;;10.00;99.90;;;;;;5044427;28;20568;-80
2023/03/31 06:48:22;;;;;;;14.35;4.28;;;10.00;99.90;;;;;;5045686;28;20033;-79
2023/03/31 06:50:48;;;;;;;12.73;4.50;;;10.10;99.90;;;;;;5045221;28;20031;-80
2023/03/31 06:53:14;;;;;;;13.35;4.32;;;10.00;99.90;;;;;;5046289;28;20094;-80
2023/03/31 06:55:40;;;;;;;14.63;4.32;;;10.10;99.90;;;;;;5062635;28;20032;-79
2023/03/31 06:58:06;;;;;;;16.13;4.78;;;10.10;99.90;;;;;;5058941;28;20044;-80
2023/03/31 07:00:32;;;;;;;11.60;4.00;;;10.10;99.90;;;;;;5058894;28;20490;-80
2023/03/31 07:02:58;;;;;;;12.43;4.20;;;10.10;99.90;;;;;;5043762;28;20040;-80
2023/03/31 07:05:27;;;;;;;14.32;3.92;;;10.20;99.90;;;;;;5044967;28;20032;-80
2023/03/31 07:07:54;;;;;;;11.15;4.00;;;10.10;99.90;;;;;;5042421;28;20037;-79
2023/03/31 07:10:21;;;;;;;16.67;4.50;;;10.20;99.90;;;;;;5044105;28;20106;-80
2023/03/31 07:12:47;;;;;;;11.18;3.83;;;10.10;99.90;;;;;;5060282;28;20040;-80
2023/03/31 07:15:13;;;;;;;10.75;3.97;;;10.20;99.90;;;;;;5059202;28;20055;-80
2023/03/31 07:17:40;;;;;;;12.75;4.47;;;10.20;99.90;;;;;;5062483;28;20037;-79
2023/03/31 07:20:11;;;;;;;13.65;3.95;;;10.10;99.90;;;;;;5060676;28;20056;-80
2023/03/31 07:22:40;;;;;;;13.85;4.18;;;10.10;99.90;;;;;;5042605;28;20383;-79
2023/03/31 07:25:07;;;;;;;11.63;4.20;;;10.20;99.90;;;;;;5058435;28;20477;-80
2023/03/31 07:27:33;;;;;;;11.68;4.07;;;10.20;99.90;;;;;;5061795;28;20110;-80
2023/03/31 07:29:59;;;;;;;12.90;3.97;;;10.20;99.90;;;;;;5061464;28;20074;-80
2023/03/31 07:32:25;;;;;;;10.95;3.83;;;10.20;99.90;;;;;;5061647;28;20117;-79
2023/03/31 07:34:50;;;;;;;10.95;3.47;;;10.20;99.90;;;;;;5062593;28;20497;-79
2023/03/31 07:37:16;;;;;;;11.70;3.80;;;10.20;99.90;;;;;;5059089;28;20309;-79
2023/03/31 07:39:42;;;;;;;11.48;3.88;;;10.30;99.90;;;;;;5026950;28;20028;-80
2023/03/31 07:42:08;;;;;;;10.35;3.55;;;10.30;99.90;;;;;;5028701;28;20040;-80
2023/03/31 07:44:34;;;;;;;10.63;3.65;;;10.30;99.90;;;;;;5046967;28;20037;-80
2023/03/31 07:47:03;;;;;;;11.40;3.60;;;10.30;99.90;;;;;;5045897;28;20106;-80
2023/03/31 07:49:33;;;;;;;13.05;4.00;;;10.50;99.90;;;;;;5059901;28;20047;-80
2023/03/31 07:51:59;;;;;;;10.90;3.78;;;10.40;99.90;;;;;;5059392;28;20048;-80
2023/03/31 07:54:25;;;;;;;11.82;4.30;;;10.40;99.90;;;;;;5046338;28;20371;-81
2023/03/31 07:56:51;;;;;;;12.32;4.05;;;10.40;99.90;;;;;;5041934;28;20033;-80
2023/03/31 07:59:17;;;;;;;11.50;4.25;;;10.40;99.90;;;;;;5059898;28;20076;-80
2023/03/31 08:01:42;;;;;;;17.30;4.25;;;10.40;99.90;;;;;;5058423;28;20458;-79
2023/03/31 08:04:09;;;;;;;13.23;4.60;;;10.40;99.90;;;;;;5056239;28;20125;-80
2023/03/31 08:06:35;;;;;;;13.93;4.55;;;10.40;99.90;;;;;;5060446;28;20044;-80
2023/03/31 08:09:03;;;;;;;11.07;4.25;;;10.30;99.90;;;;;;5060541;28;20040;-80
2023/03/31 08:11:30;;;;;;;12.80;3.90;;;10.30;99.90;;;;;;5059213;28;20052;-80
2023/03/31 08:13:56;;;;;;;13.48;4.35;;;10.30;99.90;;;;;;5045948;28;20735;-80
2023/03/31 08:16:21;;;;;;;12.35;4.22;;;10.30;99.90;;;;;;5062418;28;20155;-80
2023/03/31 08:18:47;;;;;;;11.07;4.03;;;10.30;99.90;;;;;;5042177;28;20055;-80
2023/03/31 08:21:13;;;;;;;10.80;3.90;;;10.30;99.90;;;;;;5058134;28;20054;-80
2023/03/31 08:23:39;;;;;;;11.65;3.65;;;10.30;99.90;;;;;;5059972;28;20478;-80
2023/03/31 08:26:08;;;;;;;13.45;4.05;;;10.30;99.90;;;;;;5045984;28;20409;-80
2023/03/31 08:28:34;;;;;;;9.48;3.67;;;10.30;99.90;;;;;;5038593;28;20042;-80
2023/03/31 08:31:07;;;;;;;10.95;4.13;;;10.30;99.90;;;;;;5040435;28;20406;-80
2023/03/31 08:33:33;;;;;;;9.02;3.40;;;10.30;99.90;;;;;;5061202;28;20055;-80
2023/03/31 08:36:05;;;;;;;10.57;3.58;;;10.30;99.90;;;;;;5044612;28;20493;-80
2023/03/31 08:38:31;;;;;;;10.05;3.70;;;10.30;99.90;;;;;;5044173;28;20112;-80
2023/03/31 08:41:11;;;;;;;10.90;3.95;;;10.30;99.90;;;;;;5061177;28;20078;-80
2023/03/31 08:43:43;;;;;;;11.48;3.97;;;10.40;99.90;;;;;;5063544;28;20063;-80
2023/03/31 08:46:16;;;;;;;10.47;3.77;;;10.40;99.90;;;;;;5060694;28;20036;-80
2023/03/31 08:48:47;;;;;;;8.55;3.20;;;10.50;99.90;;;;;;5059297;28;21361;-80
2023/03/31 08:51:20;;;;;;;10.73;3.53;;;9.50;99.90;;;;;;5058235;28;20075;-80
2023/03/31 08:54:03;;;;;;;10.88;3.50;;;10.50;99.90;;;;;;5045285;28;20036;-80
2023/03/31 08:56:38;;;;;;;9.50;3.13;;;10.50;99.90;;;;;;5066112;28;20132;-80
2023/03/31 08:59:05;;;;;;;10.77;3.25;;;10.50;99.90;;;;;;5064508;28;20623;-80
2023/03/31 09:01:54;;;;;;;10.07;3.28;;;10.50;99.90;;;;;;5045138;28;20059;-80
2023/03/31 09:04:32;;;;;;;10.88;3.03;;;10.50;99.90;;;;;;5059297;28;20029;-80
2023/03/31 09:07:16;;;;;;;10.30;3.33;;;10.50;99.90;;;;;;5062883;28;20070;-80
2023/03/31 09:10:06;;;;;;;10.75;3.35;;;10.50;99.90;;;;;;5062129;28;20044;-79
2023/03/31 09:12:51;;;;;;;10.85;3.03;;;10.50;99.90;;;;;;5062029;28;20128;-79
2023/03/31 09:15:28;;;;;;;11.30;3.00;;;10.50;99.90;;;;;;5059893;28;20041;-79
2023/03/31 09:18:00;;;;;;;10.80;3.35;;;10.60;99.90;;;;;;5061431;28;20040;-80
2023/03/31 09:20:35;;;;;;;11.73;4.22;;;10.60;99.90;;;;;;5032009;28;20045;-80
2023/03/31 09:23:07;;;;;;;12.57;3.58;;;10.60;99.90;;;;;;5062569;28;20059;-79
2023/03/31 09:25:37;;;;;;;10.65;3.28;;;10.60;99.90;;;;;;5075812;28;20044;-79
2023/03/31 09:28:04;;;;;;;12.93;3.47;;;10.70;99.90;;;;;;5060277;28;20123;-79
2023/03/31 09:30:34;;;;;;;11.90;3.53;;;10.70;99.90;;;;;;5060811;28;20049;-80
2023/03/31 09:33:18;;;;;;;14.40;3.33;;;10.70;99.90;;;;;;5047055;28;20074;-80
2023/03/31 09:35:44;;;;;;;13.30;3.25;;;10.70;99.90;;;;;;5064455;28;20044;-80
2023/03/31 09:38:11;;;;;;;13.80;3.95;;;10.70;99.90;;;;;;5030107;28;20128;-80
2023/03/31 09:40:38;;;;;;;10.55;2.97;;;10.70;99.90;;;;;;5044430;28;20036;-80
2023/03/31 09:43:25;;;;;;;9.90;3.03;;;10.70;99.90;;;;;;5063273;28;20044;-80
2023/03/31 09:45:51;;;;;;;12.02;3.25;;;10.80;99.90;;;;;;5066968;28;20052;-80
2023/03/31 09:48:27;;;;;;;10.88;3.30;;;10.80;99.90;;;;;;5063955;28;20044;-80
2023/03/31 09:50:59;;;;;;;10.32;3.35;;;10.80;99.90;;;;;;5067986;28;20032;-80
2023/03/31 09:53:54;;;;;;;12.73;3.53;;;10.80;99.90;;;;;;5050716;28;20093;-80
2023/03/31 09:56:52;;;;;;;11.77;3.20;;;10.90;99.90;;;;;;5054922;28;20057;-80
2023/03/31 09:59:29;;;;;;;10.68;3.25;;;11.00;99.90;;;;;;5019960;28;20044;-80
2023/03/31 10:01:57;;;;;;;10.65;3.25;;;11.00;99.90;;;;;;5060528;28;20075;-80
2023/03/31 10:04:26;;;;;;;10.32;3.05;;;11.00;99.90;;;;;;5072610;28;20111;-80
2023/03/31 10:06:55;;;;;;;14.55;3.60;;;11.10;99.90;;;;;;5061717;28;20102;-80
2023/03/31 10:09:25;;;;;;;11.43;3.85;;;11.10;99.90;;;;;;5062379;28;20040;-80
2023/03/31 10:12:01;;;;;;;10.07;3.50;;;11.10;99.90;;;;;;5063046;28;20062;-80
2023/03/31 10:14:38;;;;;;;13.65;3.53;;;11.20;99.90;;;;;;5063635;28;20410;-80
2023/03/31 10:17:06;;;;;;;12.77;3.53;;;11.30;99.90;;;;;;5060243;28;20047;-80
2023/03/31 10:19:36;;;;;;;11.38;3.50;;;11.30;99.90;;;;;;5041717;28;20053;-80
2023/03/31 10:22:15;;;;;;;10.40;3.25;;;11.40;99.90;;;;;;5044564;28;20060;-81
2023/03/31 10:24:45;;;;;;;12.05;3.10;;;11.50;99.90;;;;;;5062893;28;20401;-81
2023/03/31 10:27:27;;;;;;;11.93;3.30;;;11.50;99.90;;;;;;5044433;28;20037;-80
2023/03/31 10:29:55;;;;;;;9.90;3.35;;;11.50;99.90;;;;;;5061066;28;20564;-80
2023/03/31 10:32:31;;;;;;;11.70;3.47;;;11.50;99.90;;;;;;5042688;28;20036;-80
2023/03/31 10:35:02;;;;;;;9.48;3.40;;;11.60;99.90;;;;;;5061632;28;20115;-80
2023/03/31 10:37:30;;;;;;;10.43;3.10;;;11.60;99.90;;;;;;5059928;28;20045;-79
2023/03/31 10:40:13;;;;;;;9.77;3.05;;;11.50;99.90;;;;;;5027488;28;20154;-79
2023/03/31 10:42:39;;;;;;;10.50;3.00;;;11.50;99.90;;;;;;5061100;28;20106;-80
2023/03/31 10:45:33;;;;;;;11.57;3.00;;;11.40;99.90;;;;;;5029581;28;20032;-80
2023/03/31 10:48:00;;;;;;;;;;;11.40;99.90;;;;;;5046515;28;20146;-80
2023/03/31 10:50:31;;;;;;;8.95;3.15;;;11.40;99.90;;;;;;5058584;28;19970;-80
2023/03/31 10:53:12;;;;;;;9.90;3.35;;;11.50;99.90;;;;;;5043964;28;20514;-79
2023/03/31 10:55:59;;;;;;;10.25;3.58;;;11.60;99.90;;;;;;5064903;28;20479;-80
2023/03/31 10:58:46;;;;;;;10.65;3.20;;;11.60;99.90;;;;;;5042643;28;20120;-80
2023/03/31 11:01:31;;;;;;;8.88;2.92;;;11.70;99.90;;;;;;5058200;28;20532;-79
2023/03/31 11:04:11;;;;;;;11.50;2.95;;;11.80;99.90;;;;;;5035705;28;20032;-79
2023/03/31 11:07:01;;;;;;;9.30;2.78;;;11.90;99.90;;;;;;5042929;28;20128;-80
2023/03/31 11:10:04;;;;;;;9.60;2.60;;;12.10;99.90;;;;;;5058913;28;20041;-80
2023/03/31 11:12:50;;;;;;;7.82;2.25;;;12.10;99.90;;;;;;5046428;28;20079;-80
2023/03/31 11:15:37;;;;;;;8.82;2.50;;;12.20;99.90;;;;;;5063457;28;20040;-80
2023/03/31 11:18:28;;;;;;;7.78;2.50;;;12.30;99.90;;;;;;5048385;28;20098;-81
2023/03/31 11:21:15;;;;;;;9.38;2.67;;;12.30;99.90;;;;;;5060756;28;20135;-79
2023/03/31 11:23:41;;;;;;;8.93;2.38;;;12.30;99.90;;;;;;5064186;28;20310;-79
2023/03/31 11:26:14;;;;;;;7.78;2.50;;;12.40;99.90;;;;;;5062472;28;20040;-79
2023/03/31 11:29:23;;;;;;;9.02;2.42;;;12.50;99.90;;;;;;5063140;28;20036;-79
2023/03/31 11:31:58;;;;;;;9.63;2.58;;;12.50;99.90;;;;;;5045718;28;20150;-79
2023/03/31 11:34:55;;;;;;;9.73;2.60;;;12.60;99.90;;;;;;5059311;28;20056;-80
2023/03/31 11:37:53;;;;;;;9.32;2.72;;;12.70;99.90;;;;;;5063047;28;20126;-79
2023/03/31 11:40:52;;;;;;;9.77;2.88;;;12.70;99.90;;;;;;5030563;28;20090;-79
2023/03/31 11:43:35;;;;;;;8.93;2.47;;;12.70;99.90;;;;;;5055460;28;20075;-79
2023/03/31 11:46:08;;;;;;;10.60;2.72;;;12.90;99.90;;;;;;5060524;28;20071;-80
2023/03/31 11:48:54;;;;;;;10.30;2.85;;;13.00;99.90;;;;;;5059347;28;20490;-80
2023/03/31 11:51:46;;;;;;;10.38;2.92;;;13.10;99.90;;;;;;5060695;28;20263;-79
2023/03/31 11:54:37;;;;;;;9.52;2.53;;;13.20;99.90;;;;;;5060877;28;20510;-79
2023/03/31 11:57:18;;;;;;;10.55;2.80;;;13.40;99.90;;;;;;5058101;28;20032;-80
2023/03/31 12:00:05;;;;;;;11.05;2.60;;;13.50;99.90;;;;;;5061533;28;20147;-79
2023/03/31 12:02:50;;;;;;;10.52;2.80;;;13.60;99.90;;;;;;5062555;28;20033;-80
2023/03/31 12:05:17;;;;;;;9.90;2.97;;;13.60;99.90;;;;;;5060666;28;20184;-80
2023/03/31 12:07:49;;;;;;;8.82;2.78;;;13.50;99.90;;;;;;5045306;28;20474;-79
2023/03/31 12:10:20;;;;;;;9.00;2.42;;;13.30;99.90;;;;;;5060301;28;20059;-79
2023/03/31 12:12:58;;;;;;;12.35;3.00;;;13.20;99.90;;;;;;5045013;28;20040;-79
2023/03/31 12:15:29;;;;;;;9.13;2.47;;;13.00;99.90;;;;;;5053958;28;20151;-79
2023/03/31 12:18:00;;;;;;;8.80;2.20;;;12.80;99.90;;;;;;5042604;28;20045;-79
2023/03/31 12:20:46;;;;;;;8.80;2.40;;;12.70;99.90;;;;;;5041232;28;20497;-79
2023/03/31 12:23:17;;;;;;;9.13;2.40;;;12.70;99.90;;;;;;5059961;28;20127;-79
2023/03/31 12:25:49;;;;;;;10.40;2.53;;;12.70;99.90;;;;;;5043882;28;20040;-79
2023/03/31 12:28:17;;;;;;;8.88;2.60;;;12.80;99.90;;;;;;5044576;28;20076;-79
2023/03/31 12:30:45;;;;;;;8.43;2.90;;;12.90;99.90;;;;;;5058456;28;20104;-79
2023/03/31 12:33:31;;;;;;;9.80;2.22;;;12.90;99.90;;;;;;5061665;28;20418;-79
2023/03/31 12:36:29;;;;;;;8.77;2.35;;;13.00;99.90;;;;;;5063090;28;20064;-79
2023/03/31 12:39:27;;;;;;;10.05;2.58;;;13.00;99.90;;;;;;5061562;28;20044;-78
2023/03/31 12:42:01;;;;;;;11.15;2.47;;;13.10;99.90;;;;;;5064085;28;20036;-79
2023/03/31 12:44:36;;;;;;;8.82;2.40;;;13.10;99.90;;;;;;5063851;28;20094;-79
2023/03/31 12:47:26;;;;;;;8.02;2.15;;;13.10;99.90;;;;;;5076069;28;20036;-79
2023/03/31 12:49:55;;;;;;;9.45;2.33;;;13.00;99.90;;;;;;5049231;28;20143;-79
2023/03/31 12:52:35;;;;;;;8.40;2.10;;;13.00;99.90;;;;;;5079672;28;20067;-79
2023/03/31 12:55:01;;;;;;;8.85;2.40;;;13.10;99.90;;;;;;5066051;28;20134;-79
2023/03/31 12:57:28;;;;;;;10.70;2.63;;;13.00;99.90;;;;;;5061998;28;20406;-79
2023/03/31 13:00:20;;;;;;;10.55;2.40;;;13.00;99.90;;;;;;5031336;28;20196;-79
2023/03/31 13:02:46;;;;;;;9.90;2.50;;;13.10;99.90;;;;;;5054124;28;20105;-79
2023/03/31 13:05:37;;;;;;;11.55;3.08;;;14.00;99.90;;;;;;5046714;28;20082;-79
2023/03/31 13:08:06;;;;;;;9.88;2.50;;;13.40;99.90;;;;;;5065575;28;20355;-79
2023/03/31 13:10:32;;;;;;;10.93;2.78;;;13.50;99.90;;;;;;5045850;28;20414;-79
2023/03/31 13:13:13;;;;;;;10.55;2.85;;;13.60;99.90;;;;;;5067339;28;20037;-80